createdAt,value
2023-01-19T05:15:22.568Z,1.00
2023-01-19T05:16:22.640Z,1.00
2023-01-19T05:17:22.536Z,0.98
2023-01-19T05:18:22.514Z,1.00
2023-01-19T05:19:22.503Z,1.01
2023-01-19T05:20:22.494Z,1.00
2023-01-19T05:21:22.562Z,1.01
2023-01-19T05:22:22.501Z,1.00
2023-01-19T05:23:22.496Z,0.98
2023-01-19T05:24:22.449Z,0.98
2023-01-19T05:25:22.444Z,0.98
2023-01-19T05:26:22.414Z,0.98
2023-01-19T05:27:22.491Z,1.00
2023-01-19T05:28:22.410Z,1.01
2023-01-19T05:29:22.421Z,1.00
2023-01-19T05:30:22.447Z,1.01
2023-01-19T05:31:22.507Z,1.00
2023-01-19T05:32:22.402Z,1.01
2023-01-19T05:33:22.430Z,1.03
2023-01-19T05:34:22.351Z,1.01
2023-01-19T05:35:34.801Z,0.98
2023-01-19T05:36:23.291Z,1.00
2023-01-19T05:37:22.320Z,1.03
2023-01-19T05:38:34.300Z,1.03
2023-01-19T05:39:23.274Z,1.03
2023-01-19T05:40:22.270Z,1.04
2023-01-19T05:41:22.251Z,1.03
2023-01-19T05:42:22.238Z,1.04
2023-01-19T05:43:22.209Z,1.04
2023-01-19T05:44:22.203Z,1.03
2023-01-19T05:45:22.266Z,1.06
2023-01-19T05:46:22.209Z,1.06
2023-01-19T05:47:22.182Z,1.04
2023-01-19T05:48:22.243Z,1.06
2023-01-19T05:49:22.138Z,1.06
2023-01-19T05:50:22.160Z,1.07
2023-01-19T05:51:22.108Z,1.07
2023-01-19T05:52:22.117Z,1.07
2023-01-19T05:53:22.097Z,1.06
2023-01-19T05:54:22.071Z,1.06
2023-01-19T05:55:22.123Z,1.07
2023-01-19T05:56:22.052Z,1.07
2023-01-19T05:57:22.038Z,1.06
2023-01-19T05:58:22.015Z,1.04
2023-01-19T05:59:22.015Z,1.04
2023-01-19T06:00:22.008Z,1.03
2023-01-19T06:01:21.979Z,1.03
2023-01-19T06:02:22.002Z,1.03
2023-01-19T06:03:21.971Z,1.01
2023-01-19T06:04:21.934Z,1.01
2023-01-19T06:05:21.945Z,1.03
2023-01-19T06:06:21.914Z,1.01
2023-01-19T06:07:23.838Z,1.03
2023-01-19T06:08:21.885Z,1.03
2023-01-19T06:09:21.883Z,1.04
2023-01-19T06:10:21.870Z,1.04
2023-01-19T06:11:21.869Z,1.04
2023-01-19T06:12:21.832Z,1.04
2023-01-19T06:13:21.838Z,1.07
2023-01-19T06:14:21.811Z,1.07
2023-01-19T06:15:21.812Z,1.07
2023-01-19T06:16:21.820Z,1.07
2023-01-19T06:17:21.784Z,1.07
2023-01-19T06:18:21.771Z,1.10
2023-01-19T06:19:21.757Z,1.08
2023-01-19T06:20:21.751Z,1.07
2023-01-19T06:21:21.730Z,1.08
2023-01-19T06:22:21.710Z,1.08
2023-01-19T06:23:21.703Z,1.08
2023-01-19T06:24:21.690Z,1.10
2023-01-19T06:25:21.689Z,1.06
2023-01-19T06:26:21.665Z,1.07
2023-01-19T06:27:21.660Z,1.08
2023-01-19T06:28:21.638Z,1.07
2023-01-19T06:29:21.623Z,1.06
2023-01-19T06:30:21.623Z,1.08
2023-01-19T06:31:21.677Z,1.06
2023-01-19T06:32:21.585Z,1.04
2023-01-19T06:33:21.567Z,1.03
2023-01-19T06:34:21.585Z,1.03
2023-01-19T06:35:21.557Z,1.04
2023-01-19T06:36:21.539Z,1.04
2023-01-19T06:37:21.528Z,1.04
2023-01-19T06:38:21.508Z,1.08
2023-01-19T06:39:21.496Z,1.07
2023-01-19T06:40:21.520Z,1.04
2023-01-19T06:41:21.475Z,1.03
2023-01-19T06:42:21.456Z,1.08
2023-01-19T06:43:21.460Z,1.04
2023-01-19T06:44:21.434Z,0.98
2023-01-19T06:45:21.435Z,1.01
2023-01-19T06:46:21.411Z,1.03
2023-01-19T06:47:21.399Z,1.08
2023-01-19T06:48:21.378Z,1.07
2023-01-19T06:49:21.376Z,1.10
2023-01-19T06:50:21.365Z,1.07
2023-01-19T06:51:21.343Z,1.08
2023-01-19T06:52:21.332Z,1.07
2023-01-19T06:53:21.461Z,1.04
2023-01-19T06:54:21.304Z,1.04
2023-01-19T06:55:21.306Z,1.04
2023-01-19T06:56:21.281Z,1.04
2023-01-19T06:57:21.281Z,1.04
2023-01-19T06:58:21.282Z,1.01
2023-01-19T06:59:21.241Z,1.01
2023-01-19T07:00:21.240Z,1.00
2023-01-19T07:01:21.303Z,1.03
2023-01-19T07:02:27.340Z,1.01
2023-01-19T07:03:22.280Z,1.06
2023-01-19T07:04:21.190Z,1.04
2023-01-19T07:05:21.181Z,1.03
2023-01-19T07:06:21.161Z,1.04
2023-01-19T07:07:21.151Z,1.06
2023-01-19T07:08:21.135Z,1.04
2023-01-19T07:09:21.121Z,1.03
2023-01-19T07:10:21.111Z,1.04
2023-01-19T07:11:25.977Z,1.04
2023-01-19T07:12:22.092Z,1.06
2023-01-19T07:13:21.069Z,1.06
2023-01-19T07:14:21.050Z,1.06
2023-01-19T07:15:21.047Z,1.07
2023-01-19T07:16:21.098Z,1.07
2023-01-19T07:17:21.026Z,1.08
2023-01-19T07:18:21.005Z,1.08
2023-01-19T07:19:20.996Z,1.07
2023-01-19T07:20:20.976Z,1.08
2023-01-19T07:21:20.995Z,1.08
2023-01-19T07:22:20.966Z,1.10
2023-01-19T07:23:20.946Z,1.12
2023-01-19T07:24:20.926Z,1.12
2023-01-19T07:25:20.938Z,1.12
2023-01-19T07:26:20.923Z,1.15
2023-01-19T07:27:20.926Z,1.16
2023-01-19T07:28:20.876Z,1.15
2023-01-19T07:29:20.865Z,1.16
2023-01-19T07:30:20.854Z,1.18
2023-01-19T07:31:20.969Z,1.18
2023-01-19T07:32:20.895Z,1.19
2023-01-19T07:33:20.816Z,1.19
2023-01-19T07:34:20.826Z,1.19
2023-01-19T07:35:20.809Z,1.21
2023-01-19T07:36:20.802Z,1.21
2023-01-19T07:37:20.763Z,1.21
2023-01-19T07:38:20.761Z,1.22
2023-01-19T07:39:20.749Z,1.22
2023-01-19T07:40:22.163Z,1.24
2023-01-19T07:41:20.739Z,1.21
2023-01-19T07:42:20.702Z,1.22
2023-01-19T07:43:20.692Z,1.21
2023-01-19T07:44:20.684Z,1.21
2023-01-19T07:45:20.675Z,1.24
2023-01-19T07:46:20.738Z,1.25
2023-01-19T07:47:20.650Z,1.25
2023-01-19T07:48:20.630Z,1.24
2023-01-19T07:49:20.643Z,1.22
2023-01-19T07:50:20.599Z,1.24
2023-01-19T07:51:20.599Z,1.24
2023-01-19T07:52:20.579Z,1.25
2023-01-19T07:53:20.571Z,1.28
2023-01-19T07:54:20.550Z,1.26
2023-01-19T07:55:20.559Z,1.32
2023-01-19T07:56:20.538Z,1.32
2023-01-19T07:57:20.517Z,1.34
2023-01-19T07:58:20.502Z,1.34
2023-01-19T07:59:20.498Z,1.36
2023-01-19T08:00:20.475Z,1.33
2023-01-19T08:01:20.539Z,1.37
2023-01-19T08:02:20.525Z,1.37
2023-01-19T08:03:20.492Z,1.39
2023-01-19T08:04:20.447Z,1.39
2023-01-19T08:05:20.434Z,1.36
2023-01-19T08:06:20.417Z,1.39
2023-01-19T08:07:20.399Z,1.36
2023-01-19T08:08:20.406Z,1.37
2023-01-19T08:09:20.366Z,1.39
2023-01-19T08:10:20.354Z,1.39
2023-01-19T08:11:20.370Z,1.37
2023-01-19T08:12:20.333Z,1.37
2023-01-19T08:13:20.332Z,1.40
2023-01-19T08:14:20.303Z,1.40
2023-01-19T08:15:20.323Z,1.42
2023-01-19T08:16:20.304Z,1.44
2023-01-19T08:17:20.274Z,1.43
2023-01-19T08:18:20.259Z,1.42
2023-01-19T08:19:20.241Z,1.43
2023-01-19T08:20:20.238Z,1.42
2023-01-19T08:21:20.213Z,1.43
2023-01-19T08:22:20.224Z,1.44
2023-01-19T08:23:20.191Z,1.42
2023-01-19T08:24:20.235Z,1.42
2023-01-19T08:25:20.173Z,1.40
2023-01-19T08:26:20.196Z,1.40
2023-01-19T08:27:20.149Z,1.42
2023-01-19T08:28:20.132Z,1.40
2023-01-19T08:29:20.120Z,1.40
2023-01-19T08:30:20.101Z,1.43
2023-01-19T08:31:23.568Z,1.46
2023-01-19T08:32:20.168Z,1.46
2023-01-19T08:33:20.060Z,1.51
2023-01-19T08:34:20.050Z,1.55
2023-01-19T08:35:20.041Z,1.58
2023-01-19T08:36:20.048Z,1.58
2023-01-19T08:37:20.018Z,1.60
2023-01-19T08:38:20.004Z,1.61
2023-01-19T08:39:19.990Z,1.62
2023-01-19T08:40:19.980Z,1.62
2023-01-19T08:41:19.967Z,1.64
2023-01-19T08:42:19.970Z,1.69
2023-01-19T08:43:19.941Z,1.68
2023-01-19T08:44:19.929Z,1.68
2023-01-19T08:45:19.906Z,1.71
2023-01-19T08:46:19.981Z,1.72
2023-01-19T08:47:20.042Z,1.72
2023-01-19T08:48:19.993Z,1.72
2023-01-19T08:49:19.867Z,1.72
2023-01-19T08:50:19.907Z,1.73
2023-01-19T08:51:19.942Z,1.73
2023-01-19T08:52:19.845Z,1.72
2023-01-19T08:53:19.821Z,1.73
2023-01-19T08:54:19.804Z,1.72
2023-01-19T08:55:19.787Z,1.75
2023-01-19T08:56:20.812Z,1.75
2023-01-19T08:57:19.785Z,1.75
2023-01-19T08:58:19.749Z,1.75
2023-01-19T08:59:19.743Z,1.73
2023-01-19T09:00:19.755Z,1.75
2023-01-19T09:01:19.831Z,1.75
2023-01-19T09:02:19.741Z,1.76
2023-01-19T09:03:19.746Z,1.75
2023-01-19T09:04:19.677Z,1.75
2023-01-19T09:05:19.723Z,1.73
2023-01-19T09:06:19.647Z,1.73
2023-01-19T09:07:19.644Z,1.75
2023-01-19T09:08:19.612Z,1.75
2023-01-19T09:09:19.631Z,1.72
2023-01-19T09:10:19.606Z,1.72
2023-01-19T09:11:19.580Z,1.73
2023-01-19T09:12:19.580Z,1.73
2023-01-19T09:13:19.570Z,1.72
2023-01-19T09:14:19.539Z,1.73
2023-01-19T09:15:19.551Z,1.72
2023-01-19T09:16:19.554Z,1.73
2023-01-19T09:17:19.519Z,1.73
2023-01-19T09:18:19.503Z,1.73
2023-01-19T09:19:19.498Z,1.76
2023-01-19T09:20:19.469Z,1.78
2023-01-19T09:21:19.459Z,1.82
2023-01-19T09:22:19.458Z,1.89
2023-01-19T09:23:19.454Z,1.91
2023-01-19T09:24:19.418Z,1.91
2023-01-19T09:25:19.407Z,1.87
2023-01-19T09:26:19.388Z,1.82
2023-01-19T09:27:19.391Z,1.89
2023-01-19T09:28:19.373Z,1.91
2023-01-19T09:29:19.356Z,1.93
2023-01-19T09:30:19.352Z,1.93
2023-01-19T09:31:19.460Z,1.91
2023-01-19T09:32:19.324Z,1.93
2023-01-19T09:33:19.322Z,1.93
2023-01-19T09:34:19.295Z,1.93
2023-01-19T09:35:19.302Z,1.93
2023-01-19T09:36:19.264Z,1.98
2023-01-19T09:37:19.275Z,1.99
2023-01-19T09:38:19.235Z,2.02
2023-01-19T09:39:19.239Z,2.02
2023-01-19T09:40:19.243Z,2.04
2023-01-19T09:41:19.285Z,2.04
2023-01-19T09:42:19.203Z,2.01
2023-01-19T09:43:19.186Z,2.08
2023-01-19T09:44:19.168Z,2.08
2023-01-19T09:45:19.153Z,2.08
2023-01-19T09:46:19.164Z,2.09
2023-01-19T09:47:19.135Z,2.10
2023-01-19T09:48:19.128Z,2.13
2023-01-19T09:49:19.115Z,2.12
2023-01-19T09:50:19.090Z,2.12
2023-01-19T09:51:19.081Z,2.13
2023-01-19T09:52:19.072Z,2.13
2023-01-19T09:53:19.052Z,2.16
2023-01-19T09:54:19.043Z,2.16
2023-01-19T09:55:19.021Z,2.19
2023-01-19T09:56:19.015Z,2.20
2023-01-19T09:57:19.037Z,2.20
2023-01-19T09:58:18.991Z,2.23
2023-01-19T09:59:18.978Z,2.27
2023-01-19T10:00:18.963Z,2.31
2023-01-19T10:01:19.078Z,2.33
2023-01-19T10:02:18.954Z,2.35
2023-01-19T10:03:19.010Z,2.37
2023-01-19T10:04:18.923Z,2.40
2023-01-19T10:05:18.902Z,2.41
2023-01-19T10:06:18.893Z,2.41
2023-01-19T10:07:18.889Z,2.45
2023-01-19T10:08:18.878Z,2.48
2023-01-19T10:09:18.859Z,2.52
2023-01-19T10:10:18.841Z,2.56
2023-01-19T10:11:18.843Z,2.66
2023-01-19T10:12:19.893Z,2.79
2023-01-19T10:13:18.817Z,2.98
2023-01-19T10:14:18.934Z,2.95
2023-01-19T10:15:18.783Z,2.95
2023-01-19T10:16:18.824Z,2.94
2023-01-19T10:17:18.765Z,2.94
2023-01-19T10:18:18.745Z,2.97
2023-01-19T10:19:18.722Z,3.02
2023-01-19T10:20:18.710Z,3.00
2023-01-19T10:21:18.704Z,3.03
2023-01-19T10:22:18.675Z,3.03
2023-01-19T10:23:18.698Z,2.98
2023-01-19T10:24:18.655Z,2.92
2023-01-19T10:25:18.712Z,2.92
2023-01-19T10:26:18.632Z,2.92
2023-01-19T10:27:18.622Z,2.92
2023-01-19T10:28:18.612Z,2.91
2023-01-19T10:29:18.619Z,2.88
2023-01-19T10:30:18.612Z,2.88
2023-01-19T10:31:18.734Z,2.88
2023-01-19T10:32:18.555Z,2.87
2023-01-19T10:33:18.579Z,2.85
2023-01-19T10:34:20.950Z,2.85
2023-01-19T10:35:18.523Z,2.82
2023-01-19T10:36:18.509Z,2.77
2023-01-19T10:37:18.542Z,2.76
2023-01-19T10:38:18.503Z,2.77
2023-01-19T10:39:18.473Z,2.77
2023-01-19T10:40:18.508Z,2.74
2023-01-19T10:41:18.450Z,2.74
2023-01-19T10:42:18.434Z,2.71
2023-01-19T10:43:18.482Z,2.69
2023-01-19T10:44:18.405Z,2.67
2023-01-19T10:45:18.408Z,2.64
2023-01-19T10:46:18.428Z,2.63
2023-01-19T10:47:18.416Z,2.64
2023-01-19T10:48:18.373Z,2.66
2023-01-19T10:49:18.339Z,2.69
2023-01-19T10:50:18.418Z,2.70
2023-01-19T10:51:18.386Z,2.70
2023-01-19T10:52:19.099Z,2.70
2023-01-19T10:53:18.299Z,2.70
2023-01-19T10:54:18.302Z,2.71
2023-01-19T10:55:18.320Z,2.76
2023-01-19T10:56:18.252Z,2.81
2023-01-19T10:57:18.225Z,2.79
2023-01-19T10:58:19.010Z,2.77
2023-01-19T10:59:18.316Z,2.82
2023-01-19T11:00:18.260Z,2.87
2023-01-19T11:01:18.311Z,2.89
2023-01-19T11:02:18.454Z,2.87
2023-01-19T11:03:18.239Z,2.85
2023-01-19T11:04:18.142Z,2.88
2023-01-19T11:05:18.136Z,2.87
2023-01-19T11:06:18.115Z,2.88
2023-01-19T11:07:18.106Z,2.89
2023-01-19T11:08:18.100Z,2.91
2023-01-19T11:09:18.091Z,2.92
2023-01-19T11:10:18.195Z,3.00
2023-01-19T11:11:18.057Z,3.18
2023-01-19T11:12:18.034Z,3.27
2023-01-19T11:13:18.044Z,3.33
2023-01-19T11:14:18.022Z,3.27
2023-01-19T11:15:18.020Z,3.23
2023-01-19T11:16:18.009Z,3.16
2023-01-19T11:17:17.973Z,3.13
2023-01-19T11:18:17.973Z,3.09
2023-01-19T11:19:17.953Z,3.07
2023-01-19T11:20:17.946Z,3.06
2023-01-19T11:21:17.936Z,3.06
2023-01-19T11:22:17.923Z,3.06
2023-01-19T11:23:17.903Z,3.12
2023-01-19T11:24:17.892Z,3.21
2023-01-19T11:25:17.883Z,3.23
2023-01-19T11:26:17.863Z,3.27
2023-01-19T11:27:17.853Z,3.30
2023-01-19T11:28:17.852Z,3.28
2023-01-19T11:29:17.821Z,3.30
2023-01-19T11:30:17.838Z,3.27
2023-01-19T11:31:17.878Z,3.28
2023-01-19T11:32:17.791Z,3.25
2023-01-19T11:33:17.779Z,3.25
2023-01-19T11:34:17.770Z,3.54
2023-01-19T11:35:17.749Z,4.54
2023-01-19T11:36:17.748Z,4.43
2023-01-19T11:37:17.720Z,4.51
2023-01-19T11:38:17.709Z,4.86
2023-01-19T11:39:17.720Z,5.73
2023-01-19T11:40:17.688Z,6.29
2023-01-19T11:41:17.670Z,6.06
2023-01-19T11:42:17.672Z,5.92
2023-01-19T11:43:17.645Z,5.93
2023-01-19T11:44:17.649Z,6.44
2023-01-19T11:45:17.619Z,6.94
2023-01-19T11:46:17.673Z,7.59
2023-01-19T11:47:17.597Z,8.14
2023-01-19T11:48:17.585Z,8.00
2023-01-19T11:49:17.578Z,7.92
2023-01-19T11:50:17.558Z,7.50
2023-01-19T11:51:17.584Z,6.97
2023-01-19T11:52:17.616Z,7.31
2023-01-19T11:53:17.525Z,6.79
2023-01-19T11:54:17.526Z,6.18
2023-01-19T11:55:17.508Z,5.78
2023-01-19T11:56:17.486Z,5.38
2023-01-19T11:57:17.479Z,5.17
2023-01-19T11:58:17.462Z,5.16
2023-01-19T11:59:17.450Z,5.12
2023-01-19T12:00:17.425Z,4.92
2023-01-19T12:01:17.453Z,4.88
2023-01-19T12:02:17.430Z,4.77
2023-01-19T12:03:17.423Z,4.89
2023-01-19T12:04:17.411Z,4.95
2023-01-19T12:05:17.355Z,5.59
2023-01-19T12:06:17.366Z,6.21
2023-01-19T12:07:17.340Z,5.93
2023-01-19T12:08:17.326Z,5.83
2023-01-19T12:09:17.320Z,5.30
2023-01-19T12:10:17.296Z,4.94
2023-01-19T12:11:17.285Z,4.77
2023-01-19T12:12:17.275Z,4.61
2023-01-19T12:13:17.255Z,4.46
2023-01-19T12:14:17.269Z,4.42
2023-01-19T12:15:17.236Z,4.40
2023-01-19T12:16:17.324Z,4.37
2023-01-19T12:17:17.230Z,4.32
2023-01-19T12:18:17.194Z,4.24
2023-01-19T12:19:17.198Z,4.19
2023-01-19T12:20:17.175Z,4.26
2023-01-19T12:21:17.153Z,4.40
2023-01-19T12:22:17.148Z,4.33
2023-01-19T12:23:17.123Z,4.22
2023-01-19T12:24:17.166Z,4.07
2023-01-19T12:25:17.103Z,4.04
2023-01-19T12:26:17.096Z,3.96
2023-01-19T12:27:17.082Z,3.94
2023-01-19T12:28:17.071Z,3.94
2023-01-19T12:29:17.073Z,3.96
2023-01-19T12:30:17.045Z,3.94
2023-01-19T12:31:17.172Z,4.00
2023-01-19T12:32:17.020Z,3.90
2023-01-19T12:33:17.010Z,3.76
2023-01-19T12:34:17.004Z,3.70
2023-01-19T12:35:16.982Z,3.62
2023-01-19T12:36:16.973Z,3.64
2023-01-19T12:37:16.949Z,3.64
2023-01-19T12:38:16.950Z,3.65
2023-01-19T12:39:16.949Z,3.68
2023-01-19T12:40:16.919Z,3.62
2023-01-19T12:41:16.902Z,3.60
2023-01-19T12:42:16.906Z,3.61
2023-01-19T12:43:16.871Z,3.60
2023-01-19T12:44:16.922Z,3.88
2023-01-19T12:45:16.851Z,4.32
2023-01-19T12:46:16.936Z,4.64
2023-01-19T12:47:16.826Z,4.77
2023-01-19T12:48:16.818Z,4.62
2023-01-19T12:49:16.823Z,4.44
2023-01-19T12:50:16.909Z,4.29
2023-01-19T12:51:16.796Z,4.26
2023-01-19T12:52:16.772Z,4.15
2023-01-19T12:53:16.796Z,4.04
2023-01-19T12:54:16.771Z,4.01
2023-01-19T12:55:16.777Z,3.97
2023-01-19T12:56:16.731Z,3.94
2023-01-19T12:57:16.727Z,3.98
2023-01-19T12:58:16.689Z,3.94
2023-01-19T12:59:16.678Z,3.86
2023-01-19T13:00:16.680Z,3.80
2023-01-19T13:01:16.791Z,3.71
2023-01-19T13:02:16.768Z,3.78
2023-01-19T13:03:16.634Z,3.72
2023-01-19T13:04:16.618Z,3.82
2023-01-19T13:05:16.604Z,3.83
2023-01-19T13:06:16.585Z,3.85
2023-01-19T13:07:16.595Z,3.85
2023-01-19T13:08:16.575Z,3.85
2023-01-19T13:09:16.626Z,3.79
2023-01-19T13:10:16.544Z,3.79
2023-01-19T13:11:16.524Z,3.85
2023-01-19T13:12:16.516Z,3.90
2023-01-19T13:13:16.544Z,4.03
2023-01-19T13:14:16.486Z,4.15
2023-01-19T13:15:16.486Z,4.15
2023-01-19T13:16:16.519Z,4.07
2023-01-19T13:17:16.462Z,4.07
2023-01-19T13:18:16.443Z,3.98
2023-01-19T13:19:16.436Z,3.92
2023-01-19T13:20:16.432Z,3.97
2023-01-19T13:21:16.401Z,4.15
2023-01-19T13:22:16.412Z,4.16
2023-01-19T13:23:16.371Z,4.24
2023-01-19T13:24:16.374Z,4.29
2023-01-19T13:25:16.399Z,4.25
2023-01-19T13:26:16.358Z,4.25
2023-01-19T13:27:16.331Z,4.21
2023-01-19T13:28:16.330Z,4.12
2023-01-19T13:29:16.303Z,4.06
2023-01-19T13:30:16.324Z,4.04
2023-01-19T13:31:16.362Z,4.00
2023-01-19T13:32:16.263Z,4.03
2023-01-19T13:33:16.250Z,4.06
2023-01-19T13:34:16.238Z,4.03
2023-01-19T13:35:16.240Z,4.03
2023-01-19T13:36:16.263Z,3.97
2023-01-19T13:37:16.191Z,4.00
2023-01-19T13:38:16.178Z,3.96
2023-01-19T13:39:18.334Z,3.96
2023-01-19T13:40:16.170Z,3.97
2023-01-19T13:41:16.148Z,3.96
2023-01-19T13:42:16.128Z,3.97
2023-01-19T13:43:16.128Z,3.96
2023-01-19T13:44:16.098Z,3.86
2023-01-19T13:45:16.118Z,3.85
2023-01-19T13:46:16.119Z,3.88
2023-01-19T13:47:16.087Z,3.94
2023-01-19T13:48:16.064Z,4.04
2023-01-19T13:49:16.047Z,4.03
2023-01-19T13:50:16.037Z,3.90
2023-01-19T13:51:16.018Z,3.83
2023-01-19T13:52:16.009Z,3.82
2023-01-19T13:53:15.996Z,3.82
2023-01-19T13:54:15.987Z,3.82
2023-01-19T13:55:15.978Z,3.82
2023-01-19T13:56:15.965Z,3.76
2023-01-19T13:57:15.941Z,3.70
2023-01-19T13:58:15.924Z,3.65
2023-01-19T13:59:15.971Z,3.68
2023-01-19T14:00:15.906Z,3.67
2023-01-19T14:01:15.978Z,3.68
2023-01-19T14:02:15.947Z,3.70
2023-01-19T14:03:15.954Z,3.71
2023-01-19T14:04:15.860Z,3.75
2023-01-19T14:05:15.857Z,3.79
2023-01-19T14:06:15.848Z,3.83
2023-01-19T14:07:15.843Z,3.80
2023-01-19T14:08:15.816Z,3.78
2023-01-19T14:09:15.784Z,3.78
2023-01-19T14:10:15.787Z,3.83
2023-01-19T14:11:15.763Z,3.85
2023-01-19T14:12:15.805Z,3.79
2023-01-19T14:13:15.765Z,3.82
2023-01-19T14:14:15.751Z,3.94
2023-01-19T14:15:15.712Z,4.00
2023-01-19T14:16:15.797Z,4.00
2023-01-19T14:17:15.746Z,4.06
2023-01-19T14:18:15.680Z,4.07
2023-01-19T14:19:15.705Z,4.12
2023-01-19T14:20:15.661Z,4.16
2023-01-19T14:21:15.630Z,4.18
2023-01-19T14:22:15.625Z,4.12
2023-01-19T14:23:15.602Z,4.08
2023-01-19T14:24:16.950Z,4.03
2023-01-19T14:25:15.600Z,3.97
2023-01-19T14:26:15.580Z,3.82
2023-01-19T14:27:15.564Z,3.70
2023-01-19T14:28:15.551Z,3.58
2023-01-19T14:29:15.530Z,3.53
2023-01-19T14:30:15.532Z,3.53
2023-01-19T14:31:22.770Z,3.53
2023-01-19T14:32:15.493Z,3.53
2023-01-19T14:33:15.607Z,3.57
2023-01-19T14:34:15.471Z,3.58
2023-01-19T14:35:15.470Z,3.54
2023-01-19T14:36:17.665Z,3.52
2023-01-19T14:37:15.472Z,3.50
2023-01-19T14:38:15.455Z,3.50
2023-01-19T14:39:15.419Z,3.50
2023-01-19T14:40:15.419Z,3.53
2023-01-19T14:41:15.371Z,3.53
2023-01-19T14:42:17.436Z,3.54
2023-01-19T14:43:15.351Z,3.53
2023-01-19T14:44:15.350Z,3.57
2023-01-19T14:45:15.422Z,3.53
2023-01-19T14:46:15.337Z,3.47
2023-01-19T14:47:15.322Z,3.49
2023-01-19T14:48:17.815Z,3.44
2023-01-19T14:49:15.269Z,3.47
2023-01-19T14:50:15.261Z,3.50
2023-01-19T14:51:15.260Z,3.49
2023-01-19T14:52:15.241Z,3.50
2023-01-19T14:53:15.233Z,3.47
2023-01-19T14:54:15.221Z,3.46
2023-01-19T14:55:15.198Z,3.46
2023-01-19T14:56:15.208Z,3.47
2023-01-19T14:57:15.197Z,3.50
2023-01-19T14:58:15.188Z,3.50
2023-01-19T14:59:15.160Z,3.46
2023-01-19T15:00:17.247Z,3.46
2023-01-19T15:01:15.271Z,3.42
2023-01-19T15:02:15.151Z,3.36
2023-01-19T15:03:15.096Z,3.36
2023-01-19T15:04:15.085Z,3.33
2023-01-19T15:05:15.072Z,3.33
2023-01-19T15:06:15.073Z,3.30
2023-01-19T15:07:15.045Z,3.34
2023-01-19T15:08:15.034Z,3.39
2023-01-19T15:09:15.030Z,3.39
2023-01-19T15:10:15.017Z,3.39
2023-01-19T15:11:15.004Z,3.36
2023-01-19T15:12:17.197Z,3.33
2023-01-19T15:13:14.963Z,3.28
2023-01-19T15:14:14.953Z,3.27
2023-01-19T15:15:14.943Z,3.24
2023-01-19T15:16:15.031Z,3.21
2023-01-19T15:17:14.933Z,3.18
2023-01-19T15:18:15.747Z,3.15
2023-01-19T15:19:14.901Z,3.15
2023-01-19T15:20:14.896Z,3.07
2023-01-19T15:21:14.892Z,3.06
2023-01-19T15:22:14.864Z,3.06
2023-01-19T15:23:14.847Z,3.05
2023-01-19T15:24:17.580Z,2.98
2023-01-19T15:25:14.821Z,2.95
2023-01-19T15:26:14.831Z,2.95
2023-01-19T15:27:14.792Z,2.95
2023-01-19T15:28:14.792Z,2.97
2023-01-19T15:29:14.778Z,2.97
2023-01-19T15:30:14.774Z,2.97
2023-01-19T15:31:14.794Z,2.98
2023-01-19T15:32:14.774Z,2.97
2023-01-19T15:33:14.710Z,2.94
2023-01-19T15:34:14.702Z,2.89
2023-01-19T15:35:14.695Z,2.88
2023-01-19T15:36:16.941Z,2.87
2023-01-19T15:37:14.659Z,2.85
2023-01-19T15:38:14.650Z,2.87
2023-01-19T15:39:14.632Z,2.84
2023-01-19T15:40:14.668Z,2.82
2023-01-19T15:41:14.629Z,2.82
2023-01-19T15:42:14.634Z,2.84
2023-01-19T15:43:14.594Z,2.85
2023-01-19T15:44:14.578Z,2.81
2023-01-19T15:45:14.569Z,2.79
2023-01-19T15:46:14.567Z,2.74
2023-01-19T15:47:14.551Z,2.71
2023-01-19T15:48:14.519Z,2.69
2023-01-19T15:49:14.540Z,2.67
2023-01-19T15:50:14.487Z,2.67
2023-01-19T15:51:14.516Z,2.69
2023-01-19T15:52:16.949Z,2.67
2023-01-19T15:53:14.478Z,2.66
2023-01-19T15:54:14.449Z,2.64
2023-01-19T15:55:14.444Z,2.64
2023-01-19T15:56:14.474Z,2.63
2023-01-19T15:57:14.426Z,2.61
2023-01-19T15:58:14.395Z,2.63
2023-01-19T15:59:14.399Z,2.59
2023-01-19T16:00:14.418Z,2.61
2023-01-19T16:01:14.484Z,2.61
2023-01-19T16:02:14.475Z,2.59
2023-01-19T16:03:14.327Z,2.58
2023-01-19T16:04:16.540Z,2.61
2023-01-19T16:05:14.323Z,2.59
2023-01-19T16:06:14.293Z,2.58
2023-01-19T16:07:14.314Z,2.59
2023-01-19T16:08:14.271Z,2.61
2023-01-19T16:09:14.268Z,2.58
2023-01-19T16:10:14.243Z,2.56
2023-01-19T16:11:14.227Z,2.53
2023-01-19T16:12:14.235Z,2.51
2023-01-19T16:13:14.202Z,2.46
2023-01-19T16:14:15.558Z,2.45
2023-01-19T16:15:14.191Z,2.40
2023-01-19T16:16:14.193Z,2.37
2023-01-19T16:17:14.162Z,2.34
2023-01-19T16:18:14.180Z,2.30
2023-01-19T16:19:14.130Z,2.28
2023-01-19T16:20:14.949Z,2.30
2023-01-19T16:21:14.102Z,2.30
2023-01-19T16:22:14.172Z,2.27
2023-01-19T16:23:15.354Z,2.27
2023-01-19T16:24:14.077Z,2.26
2023-01-19T16:25:14.047Z,2.22
2023-01-19T16:26:15.198Z,2.17
2023-01-19T16:27:14.036Z,2.16
2023-01-19T16:28:14.013Z,2.16
2023-01-19T16:29:14.002Z,2.15
2023-01-19T16:30:13.987Z,2.13
2023-01-19T16:31:14.021Z,2.15
2023-01-19T16:32:14.604Z,2.13
2023-01-19T16:33:13.973Z,2.13
2023-01-19T16:34:13.949Z,2.10
2023-01-19T16:35:13.948Z,2.10
2023-01-19T16:36:13.937Z,2.10
2023-01-19T16:37:13.939Z,2.08
2023-01-19T16:38:13.893Z,2.08
2023-01-19T16:39:13.881Z,2.09
2023-01-19T16:40:13.876Z,2.13
2023-01-19T16:41:13.840Z,2.15
2023-01-19T16:42:13.869Z,2.13
2023-01-19T16:43:13.815Z,2.12
2023-01-19T16:44:13.828Z,2.10
2023-01-19T16:45:13.799Z,2.08
2023-01-19T16:46:13.872Z,2.09
2023-01-19T16:47:13.774Z,2.08
2023-01-19T16:48:13.775Z,2.06
2023-01-19T16:49:13.751Z,2.02
2023-01-19T16:50:13.736Z,2.01
2023-01-19T16:51:13.713Z,2.01
2023-01-19T16:52:13.724Z,1.99
2023-01-19T16:53:13.692Z,2.02
2023-01-19T16:54:13.704Z,2.01
2023-01-19T16:55:13.699Z,2.04
2023-01-19T16:56:13.675Z,2.06
2023-01-19T16:57:13.651Z,2.09
2023-01-19T16:58:13.631Z,2.06
2023-01-19T16:59:13.631Z,2.08
2023-01-19T17:00:13.968Z,2.04
2023-01-19T17:01:13.704Z,2.02
2023-01-19T17:02:13.714Z,1.99
2023-01-19T17:03:13.561Z,1.98
2023-01-19T17:04:13.600Z,1.93
2023-01-19T17:05:13.569Z,1.93
2023-01-19T17:06:13.542Z,1.91
2023-01-19T17:07:13.526Z,1.91
2023-01-19T17:08:13.529Z,1.93
2023-01-19T17:09:13.480Z,1.93
2023-01-19T17:10:13.836Z,1.91
2023-01-19T17:11:13.467Z,1.91
2023-01-19T17:12:13.486Z,1.91
2023-01-19T17:13:13.439Z,1.90
2023-01-19T17:14:13.434Z,1.91
2023-01-19T17:15:13.420Z,1.91
2023-01-19T17:16:13.412Z,1.94
2023-01-19T17:17:13.427Z,1.91
2023-01-19T17:18:13.387Z,1.94
2023-01-19T17:19:13.377Z,1.94
2023-01-19T17:20:13.686Z,1.93
2023-01-19T17:21:13.356Z,1.90
2023-01-19T17:22:13.340Z,1.91
2023-01-19T17:23:13.317Z,1.89
2023-01-19T17:24:13.302Z,1.90
2023-01-19T17:25:13.285Z,1.89
2023-01-19T17:26:13.278Z,1.90
2023-01-19T17:27:13.313Z,1.87
2023-01-19T17:28:13.258Z,1.83
2023-01-19T17:29:13.256Z,1.80
2023-01-19T17:30:13.651Z,1.78
2023-01-19T17:31:14.332Z,1.76
2023-01-19T17:32:13.231Z,1.76
2023-01-19T17:33:13.188Z,1.76
2023-01-19T17:34:13.183Z,1.75
2023-01-19T17:35:13.165Z,1.75
2023-01-19T17:36:13.152Z,1.76
2023-01-19T17:37:13.162Z,1.75
2023-01-19T17:38:13.142Z,1.73
2023-01-19T17:39:13.110Z,1.73
2023-01-19T17:40:13.394Z,1.73
2023-01-19T17:41:13.100Z,1.75
2023-01-19T17:42:13.083Z,1.73
2023-01-19T17:43:13.062Z,1.73
2023-01-19T17:44:13.067Z,1.72
2023-01-19T17:45:13.030Z,1.73
2023-01-19T17:46:13.055Z,1.75
2023-01-19T17:47:13.020Z,1.73
2023-01-19T17:48:13.005Z,1.75
2023-01-19T17:49:12.991Z,1.75
2023-01-19T17:50:13.304Z,1.72
2023-01-19T17:51:12.982Z,1.73
2023-01-19T17:52:12.981Z,1.73
2023-01-19T17:53:12.976Z,1.73
2023-01-19T17:54:12.928Z,1.76
2023-01-19T17:55:12.949Z,1.76
2023-01-19T17:56:12.930Z,1.78
2023-01-19T17:57:12.872Z,1.79
2023-01-19T17:58:12.888Z,1.75
2023-01-19T17:59:12.849Z,1.78
2023-01-19T18:00:13.196Z,1.79
2023-01-19T18:01:12.906Z,1.80
2023-01-19T18:02:13.001Z,1.82
2023-01-19T18:03:12.812Z,1.87
2023-01-19T18:04:12.807Z,1.90
2023-01-19T18:05:12.777Z,1.90
2023-01-19T18:06:12.766Z,1.87
2023-01-19T18:07:12.777Z,1.87
2023-01-19T18:08:12.756Z,1.83
2023-01-19T18:09:12.745Z,1.82
2023-01-19T18:10:13.125Z,1.79
2023-01-19T18:11:12.722Z,1.82
2023-01-19T18:12:12.687Z,1.82
2023-01-19T18:13:12.694Z,1.83
2023-01-19T18:14:12.684Z,1.82
2023-01-19T18:15:12.649Z,1.78
2023-01-19T18:16:12.648Z,1.79
2023-01-19T18:17:12.625Z,1.76
2023-01-19T18:18:12.624Z,1.75
2023-01-19T18:19:12.596Z,1.76
2023-01-19T18:20:12.944Z,1.73
2023-01-19T18:21:12.615Z,1.72
2023-01-19T18:22:12.563Z,1.71
2023-01-19T18:23:12.552Z,1.73
2023-01-19T18:24:12.551Z,1.72
2023-01-19T18:25:12.522Z,1.75
2023-01-19T18:26:12.523Z,1.80
2023-01-19T18:27:12.501Z,1.82
2023-01-19T18:28:12.491Z,1.76
2023-01-19T18:29:12.497Z,1.78
2023-01-19T18:30:12.807Z,1.75
2023-01-19T18:31:12.613Z,1.71
2023-01-19T18:32:12.462Z,1.65
2023-01-19T18:33:12.462Z,1.62